createdAt,value
2018-03-18T00:00:49.495Z,90.6
2018-03-18T00:01:51.454Z,91.6
2018-03-18T00:02:53.059Z,91.6
2018-03-18T00:03:54.664Z,91.5
2018-03-18T00:04:57.208Z,91.0
2018-03-18T00:05:58.932Z,90.4
2018-03-18T00:07:00.765Z,90.8
2018-03-18T00:08:02.480Z,90.2
2018-03-18T00:09:04.122Z,90.2
2018-03-18T00:10:06.191Z,90.2
2018-03-18T00:11:07.803Z,90.4
2018-03-18T00:12:09.651Z,92.0
2018-03-18T00:13:11.257Z,91.9
2018-03-18T00:14:12.862Z,90.9
2018-03-18T00:15:15.186Z,90.4
2018-03-18T00:16:16.795Z,90.4
2018-03-18T00:17:18.403Z,91.6
2018-03-18T00:18:20.011Z,91.9
2018-03-18T00:19:21.618Z,91.1
2018-03-18T00:20:23.224Z,90.4
2018-03-18T00:21:24.834Z,90.9
2018-03-18T00:22:26.440Z,90.3
2018-03-18T00:23:28.051Z,90.3
2018-03-18T00:24:29.656Z,90.8
2018-03-18T00:25:31.269Z,90.9
2018-03-18T00:26:32.870Z,89.4
2018-03-18T00:27:34.482Z,90.3
2018-03-18T00:28:36.089Z,89.8
2018-03-18T00:29:37.700Z,89.4
2018-03-18T00:30:39.310Z,89.5
2018-03-18T00:31:40.917Z,90.1
2018-03-18T00:32:42.525Z,91.0
2018-03-18T00:33:44.136Z,90.8
2018-03-18T00:34:45.741Z,90.4
2018-03-18T00:35:47.344Z,90.9
2018-03-18T00:36:48.952Z,91.5
2018-03-18T00:37:50.558Z,91.1
2018-03-18T00:38:52.172Z,90.6
2018-03-18T00:39:53.777Z,90.2
2018-03-18T00:40:55.393Z,89.2
2018-03-18T00:41:56.989Z,89.9
2018-03-18T00:42:58.600Z,91.4
2018-03-18T00:44:00.205Z,90.4
2018-03-18T00:45:01.817Z,90.9
2018-03-18T00:46:03.422Z,90.2
2018-03-18T00:47:05.028Z,90.3
2018-03-18T00:48:06.642Z,90.1
2018-03-18T00:49:08.251Z,89.2
2018-03-18T00:50:09.865Z,89.9
2018-03-18T00:51:11.470Z,89.4
2018-03-18T00:52:13.082Z,89.4
2018-03-18T00:53:14.689Z,89.4
2018-03-18T00:54:16.300Z,89.9
2018-03-18T00:55:17.911Z,90.3
2018-03-18T00:56:19.513Z,89.1
2018-03-18T00:57:21.118Z,89.4
2018-03-18T00:58:22.728Z,89.8
2018-03-18T00:59:24.339Z,90.1
2018-03-18T01:00:25.944Z,89.2
2018-03-18T01:01:27.551Z,89.5
2018-03-18T01:02:29.161Z,89.9
2018-03-18T01:03:30.769Z,90.4
2018-03-18T01:04:32.374Z,89.0
2018-03-18T01:05:33.983Z,89.2
2018-03-18T01:06:35.589Z,89.6
2018-03-18T01:07:37.196Z,89.9
2018-03-18T01:08:38.804Z,88.6
2018-03-18T01:09:40.406Z,90.2
2018-03-18T01:10:42.020Z,89.0
2018-03-18T01:11:43.627Z,89.2
2018-03-18T01:12:45.230Z,89.5
2018-03-18T01:13:46.837Z,89.0
2018-03-18T01:14:48.451Z,89.0
2018-03-18T01:15:50.062Z,89.7
2018-03-18T01:16:51.663Z,89.9
2018-03-18T01:17:53.270Z,89.5
2018-03-18T01:18:54.880Z,89.0
2018-03-18T01:19:56.492Z,89.3
2018-03-18T01:20:58.093Z,87.8
2018-03-18T01:21:59.699Z,88.4
2018-03-18T01:23:01.311Z,89.0
2018-03-18T01:24:02.918Z,89.3
2018-03-18T01:25:04.523Z,89.2
2018-03-18T01:26:06.136Z,90.6
2018-03-18T01:27:07.746Z,89.8
2018-03-18T01:28:09.345Z,89.7
2018-03-18T01:29:10.958Z,89.7
2018-03-18T01:30:12.565Z,89.3
2018-03-18T01:31:14.168Z,89.2
2018-03-18T01:32:15.772Z,89.4
2018-03-18T01:33:17.383Z,89.1
2018-03-18T01:34:18.996Z,89.1
2018-03-18T01:35:20.617Z,88.9
2018-03-18T01:36:22.205Z,88.3
2018-03-18T01:37:23.818Z,87.6
2018-03-18T01:38:26.015Z,89.0
2018-03-18T01:39:27.618Z,88.2
2018-03-18T01:40:29.225Z,89.1
2018-03-18T01:41:30.836Z,91.5
2018-03-18T01:42:32.441Z,89.0
2018-03-18T01:43:34.055Z,88.9
2018-03-18T01:44:35.659Z,88.3
2018-03-18T01:45:37.270Z,89.0
2018-03-18T01:46:38.875Z,88.8
2018-03-18T01:47:40.485Z,87.9
2018-03-18T01:48:42.092Z,88.6
2018-03-18T01:49:43.702Z,88.0
2018-03-18T01:50:45.308Z,87.5
2018-03-18T01:51:46.920Z,88.6
2018-03-18T01:52:48.523Z,89.0
2018-03-18T01:53:50.134Z,88.8
2018-03-18T01:54:51.737Z,87.4
2018-03-18T01:55:53.346Z,87.7
2018-03-18T01:56:54.955Z,88.6
2018-03-18T01:57:56.563Z,88.0
2018-03-18T01:58:58.174Z,88.4
2018-03-18T01:59:59.776Z,87.7
2018-03-18T02:01:01.386Z,88.0
2018-03-18T02:02:02.989Z,87.8
2018-03-18T02:03:04.598Z,87.1
2018-03-18T02:04:06.203Z,86.7
2018-03-18T02:05:07.815Z,88.1
2018-03-18T02:06:09.421Z,87.3
2018-03-18T02:07:11.027Z,87.2
2018-03-18T02:08:12.637Z,87.7
2018-03-18T02:09:14.239Z,88.9
2018-03-18T02:10:15.846Z,88.1
2018-03-18T02:11:17.453Z,87.5
2018-03-18T02:12:19.069Z,87.6
2018-03-18T02:13:20.674Z,86.9
2018-03-18T02:14:22.280Z,88.1
2018-03-18T02:15:23.883Z,88.5
2018-03-18T02:16:25.499Z,87.5
2018-03-18T02:17:27.101Z,88.8
2018-03-18T02:18:28.714Z,88.7
2018-03-18T02:19:30.321Z,87.6
2018-03-18T02:20:31.937Z,87.8
2018-03-18T02:21:33.542Z,87.7
2018-03-18T02:22:35.152Z,87.4
2018-03-18T02:23:36.752Z,87.1
2018-03-18T02:24:38.362Z,86.9
2018-03-18T02:25:39.966Z,86.8
2018-03-18T02:26:41.579Z,87.0
2018-03-18T02:27:43.182Z,87.6
2018-03-18T02:28:44.792Z,87.6
2018-03-18T02:29:46.396Z,86.9
2018-03-18T02:30:48.004Z,86.7
2018-03-18T02:31:49.617Z,86.6
2018-03-18T02:32:51.219Z,86.8
2018-03-18T02:33:52.831Z,87.4
2018-03-18T02:34:54.437Z,87.5
2018-03-18T02:35:56.044Z,87.5
2018-03-18T02:36:57.650Z,86.5
2018-03-18T02:37:59.259Z,87.2
2018-03-18T02:39:00.863Z,87.5
2018-03-18T02:40:02.474Z,87.9
2018-03-18T02:41:04.080Z,87.0
2018-03-18T02:42:05.692Z,87.8
2018-03-18T02:43:07.293Z,87.5
2018-03-18T02:44:08.904Z,87.3
2018-03-18T02:45:10.509Z,87.4
2018-03-18T02:46:12.120Z,88.0
2018-03-18T02:47:13.725Z,87.5
2018-03-18T02:48:15.337Z,87.8
2018-03-18T02:49:16.941Z,87.2
2018-03-18T02:50:18.545Z,87.3
2018-03-18T02:51:20.157Z,87.2
2018-03-18T02:52:21.766Z,87.2
2018-03-18T02:53:23.370Z,86.6
2018-03-18T02:54:24.981Z,87.7
2018-03-18T02:55:26.592Z,87.5
2018-03-18T02:56:28.201Z,87.5
2018-03-18T02:57:29.799Z,87.7
2018-03-18T02:58:31.408Z,87.3
2018-03-18T02:59:33.017Z,88.0
2018-03-18T03:00:34.626Z,87.8
2018-03-18T03:01:36.228Z,87.9
2018-03-18T03:02:37.836Z,87.2
2018-03-18T03:03:39.449Z,88.3
2018-03-18T03:04:41.061Z,88.0
2018-03-18T03:05:42.665Z,87.4
2018-03-18T03:06:44.272Z,87.9
2018-03-18T03:07:45.875Z,87.2
2018-03-18T03:08:47.502Z,88.2
2018-03-18T03:09:49.096Z,88.5
2018-03-18T03:10:51.196Z,87.1
2018-03-18T03:11:52.798Z,87.5
2018-03-18T03:12:54.405Z,87.3
2018-03-18T03:13:56.015Z,87.4
2018-03-18T03:14:57.623Z,87.3
2018-03-18T03:15:59.227Z,87.1
2018-03-18T03:17:00.834Z,87.6
2018-03-18T03:18:02.450Z,87.3
2018-03-18T03:19:04.056Z,88.0
2018-03-18T03:20:05.659Z,87.9
2018-03-18T03:21:07.269Z,87.4
2018-03-18T03:22:08.872Z,86.1
2018-03-18T03:23:10.481Z,86.1
2018-03-18T03:24:12.091Z,86.5
2018-03-18T03:25:13.701Z,86.2
2018-03-18T03:26:15.305Z,86.0
2018-03-18T03:27:16.911Z,85.7
2018-03-18T03:28:18.520Z,86.2
2018-03-18T03:29:20.123Z,85.9
2018-03-18T03:30:21.736Z,86.5
2018-03-18T03:31:23.347Z,86.8
2018-03-18T03:32:24.956Z,87.2
2018-03-18T03:33:26.558Z,86.9
2018-03-18T03:34:28.162Z,86.8
2018-03-18T03:35:29.775Z,87.5
2018-03-18T03:36:31.377Z,87.8
2018-03-18T03:37:32.982Z,86.7
2018-03-18T03:38:34.594Z,86.8
2018-03-18T03:39:36.202Z,86.1
2018-03-18T03:40:37.809Z,85.6
2018-03-18T03:41:39.413Z,85.7
2018-03-18T03:42:41.022Z,86.0
2018-03-18T03:43:42.632Z,85.3
2018-03-18T03:44:44.236Z,86.1
2018-03-18T03:45:45.847Z,86.1
2018-03-18T03:46:47.460Z,86.6
2018-03-18T03:47:49.059Z,85.9
2018-03-18T03:48:50.662Z,86.0
2018-03-18T03:49:52.268Z,85.5
2018-03-18T03:50:53.879Z,85.5
2018-03-18T03:51:55.486Z,85.7
2018-03-18T03:52:57.097Z,85.9
2018-03-18T03:53:58.707Z,85.8
2018-03-18T03:55:00.311Z,85.2
2018-03-18T03:56:01.924Z,85.3
2018-03-18T03:57:03.532Z,85.3
2018-03-18T03:58:05.133Z,85.8
2018-03-18T03:59:06.738Z,86.1
2018-03-18T04:00:08.351Z,85.0
2018-03-18T04:01:09.955Z,85.1
2018-03-18T04:02:11.559Z,85.3
2018-03-18T04:03:13.164Z,84.9
2018-03-18T04:04:14.769Z,84.9
2018-03-18T04:05:16.375Z,84.9
2018-03-18T04:06:17.988Z,84.6
2018-03-18T04:07:19.593Z,84.4
2018-03-18T04:08:21.200Z,84.3
2018-03-18T04:09:22.809Z,84.1
2018-03-18T04:10:24.418Z,83.4
2018-03-18T04:11:26.022Z,84.0
2018-03-18T04:12:27.631Z,84.2
2018-03-18T04:13:29.236Z,83.7
2018-03-18T04:14:30.842Z,83.9
2018-03-18T04:15:32.453Z,84.5
2018-03-18T04:16:34.057Z,85.4
2018-03-18T04:17:35.667Z,85.4
2018-03-18T04:18:37.277Z,84.6
2018-03-18T04:19:38.889Z,84.5
2018-03-18T04:20:40.493Z,84.1
2018-03-18T04:21:42.102Z,84.0
2018-03-18T04:22:43.705Z,84.5
2018-03-18T04:23:45.314Z,84.5
2018-03-18T04:24:46.921Z,84.7
2018-03-18T04:25:48.530Z,84.8
2018-03-18T04:26:50.147Z,84.5
2018-03-18T04:27:51.745Z,84.4
2018-03-18T04:28:53.354Z,84.4
2018-03-18T04:29:54.964Z,83.8
2018-03-18T04:30:56.568Z,84.7
2018-03-18T04:31:58.169Z,83.9
2018-03-18T04:32:59.774Z,84.3
2018-03-18T04:34:01.387Z,84.8
2018-03-18T04:35:03.037Z,85.2
2018-03-18T04:36:04.606Z,85.2
2018-03-18T04:37:06.208Z,86.0
2018-03-18T04:38:07.811Z,86.9
2018-03-18T04:39:09.422Z,87.2
2018-03-18T04:40:11.030Z,86.6
2018-03-18T04:41:12.635Z,87.0
2018-03-18T04:42:14.246Z,86.8
2018-03-18T04:43:15.853Z,86.4
2018-03-18T04:44:17.460Z,86.2
2018-03-18T04:45:19.067Z,85.4
2018-03-18T04:46:20.675Z,84.6
2018-03-18T04:47:22.278Z,84.2
2018-03-18T04:48:23.889Z,84.6
2018-03-18T04:49:25.512Z,85.3
2018-03-18T04:50:27.106Z,85.7
2018-03-18T04:51:28.716Z,85.6
2018-03-18T04:52:30.319Z,85.4
2018-03-18T04:53:31.925Z,84.7
2018-03-18T04:54:33.532Z,84.4
2018-03-18T04:55:35.136Z,83.4
2018-03-18T04:56:36.753Z,84.2
2018-03-18T04:57:38.350Z,84.4
2018-03-18T04:58:39.970Z,83.1
2018-03-18T04:59:41.572Z,83.1
2018-03-18T05:00:43.175Z,84.2
2018-03-18T05:01:44.786Z,84.1
2018-03-18T05:02:46.388Z,83.5
2018-03-18T05:03:47.996Z,84.5
2018-03-18T05:04:49.602Z,85.1
2018-03-18T05:05:51.216Z,85.7
2018-03-18T05:06:52.816Z,85.7
2018-03-18T05:07:54.425Z,86.1
2018-03-18T05:08:56.030Z,86.6
2018-03-18T05:09:57.642Z,85.9
2018-03-18T05:10:59.252Z,86.0
2018-03-18T05:12:00.862Z,85.4
2018-03-18T05:13:02.474Z,85.7
2018-03-18T05:14:04.202Z,87.4
2018-03-18T05:15:05.781Z,86.3
2018-03-18T05:16:07.388Z,86.1
2018-03-18T05:17:09.001Z,86.4
2018-03-18T05:18:10.602Z,86.6
2018-03-18T05:19:12.215Z,87.1
2018-03-18T05:20:13.822Z,86.6
2018-03-18T05:21:15.433Z,87.3
2018-03-18T05:22:17.033Z,86.9
2018-03-18T05:23:18.641Z,86.4
2018-03-18T05:24:20.252Z,86.4
2018-03-18T05:25:21.856Z,86.1
2018-03-18T05:26:23.485Z,85.2
2018-03-18T05:27:25.075Z,84.4
2018-03-18T05:28:26.688Z,84.2
2018-03-18T05:29:28.295Z,83.7
2018-03-18T05:30:29.898Z,84.4
2018-03-18T05:31:31.511Z,84.5
2018-03-18T05:32:33.125Z,84.4
2018-03-18T05:33:34.729Z,84.4
2018-03-18T05:34:36.338Z,83.3
2018-03-18T05:35:37.944Z,83.3
2018-03-18T05:36:39.554Z,84.1
2018-03-18T05:37:41.161Z,84.4
2018-03-18T05:38:42.767Z,85.9
2018-03-18T05:39:44.380Z,85.7
2018-03-18T05:40:45.993Z,86.1
2018-03-18T05:41:47.600Z,85.0
2018-03-18T05:42:49.205Z,85.7
2018-03-18T05:43:50.818Z,86.3
2018-03-18T05:44:52.431Z,87.3
2018-03-18T05:45:54.037Z,87.1
2018-03-18T05:46:55.704Z,86.8
2018-03-18T05:47:57.262Z,86.8
2018-03-18T05:48:58.870Z,85.9
2018-03-18T05:50:00.485Z,85.8
2018-03-18T05:51:02.093Z,85.9
2018-03-18T05:52:03.738Z,85.5
2018-03-18T05:53:05.314Z,86.2
2018-03-18T05:54:06.925Z,86.1
2018-03-18T05:55:08.538Z,86.0
2018-03-18T05:56:10.149Z,85.8
2018-03-18T05:57:11.761Z,86.0
2018-03-18T05:58:13.371Z,86.1
2018-03-18T05:59:14.983Z,86.2
2018-03-18T06:00:16.594Z,86.4
2018-03-18T06:01:18.201Z,86.0
2018-03-18T06:02:19.816Z,85.5
2018-03-18T06:03:21.429Z,85.8
2018-03-18T06:04:23.035Z,86.5
2018-03-18T06:05:24.644Z,85.7
2018-03-18T06:06:26.259Z,85.2
2018-03-18T06:07:27.866Z,83.8
2018-03-18T06:08:30.077Z,85.8
2018-03-18T06:09:31.692Z,87.9
2018-03-18T06:10:33.307Z,85.7
2018-03-18T06:11:34.912Z,84.3
2018-03-18T06:12:36.525Z,84.3
2018-03-18T06:13:38.132Z,84.4
2018-03-18T06:14:39.747Z,84.4
2018-03-18T06:15:41.355Z,84.8
2018-03-18T06:16:42.971Z,84.7
2018-03-18T06:17:44.627Z,85.1
2018-03-18T06:18:46.192Z,84.3
2018-03-18T06:19:47.808Z,83.7
2018-03-18T06:20:49.419Z,84.0
2018-03-18T06:21:51.029Z,84.1
2018-03-18T06:22:52.639Z,83.9
2018-03-18T06:23:54.255Z,82.7
2018-03-18T06:24:55.876Z,81.2
2018-03-18T06:25:57.475Z,82.0
2018-03-18T06:26:59.083Z,82.6
2018-03-18T06:28:00.695Z,82.5
2018-03-18T06:29:02.299Z,82.9
2018-03-18T06:30:03.913Z,82.5
2018-03-18T06:31:05.520Z,83.3
2018-03-18T06:32:07.135Z,83.7
2018-03-18T06:33:08.739Z,84.1
2018-03-18T06:34:10.354Z,84.4
2018-03-18T06:35:11.958Z,84.0
2018-03-18T06:36:13.574Z,85.2
2018-03-18T06:37:15.181Z,84.9
2018-03-18T06:38:16.796Z,85.5
2018-03-18T06:39:18.406Z,85.5
2018-03-18T06:40:20.013Z,85.6
2018-03-18T06:41:21.624Z,86.1
2018-03-18T06:42:23.235Z,88.8
2018-03-18T06:43:24.850Z,87.7
2018-03-18T06:44:26.457Z,87.5
2018-03-18T06:45:28.071Z,86.1
2018-03-18T06:46:29.679Z,84.5
2018-03-18T06:47:31.292Z,84.3
2018-03-18T06:48:32.903Z,84.2
2018-03-18T06:49:34.510Z,84.7
2018-03-18T06:50:36.123Z,85.0
2018-03-18T06:51:37.739Z,84.9
2018-03-18T06:52:39.352Z,85.1
2018-03-18T06:53:40.964Z,85.2
2018-03-18T06:54:42.570Z,85.0
2018-03-18T06:55:44.184Z,84.6
2018-03-18T06:56:45.797Z,84.7
2018-03-18T06:57:47.405Z,84.6
2018-03-18T06:58:49.023Z,84.4
2018-03-18T06:59:51.416Z,84.4
2018-03-18T07:00:53.030Z,82.9
2018-03-18T07:01:54.814Z,83.3
2018-03-18T07:02:56.412Z,82.9
2018-03-18T07:03:58.069Z,81.3
2018-03-18T07:04:59.682Z,81.1
2018-03-18T07:06:01.306Z,80.3
2018-03-18T07:07:02.909Z,78.9
2018-03-18T07:08:04.527Z,78.2
2018-03-18T07:09:06.727Z,78.3
2018-03-18T07:10:08.555Z,79.8
2018-03-18T07:11:10.167Z,79.7
2018-03-18T07:12:11.780Z,80.6
2018-03-18T07:13:13.433Z,80.7
2018-03-18T07:14:15.027Z,79.5
2018-03-18T07:15:16.637Z,79.7
2018-03-18T07:16:18.276Z,80.2
2018-03-18T07:17:19.882Z,78.5
2018-03-18T07:18:21.503Z,79.3
2018-03-18T07:19:23.115Z,78.7
2018-03-18T07:20:24.726Z,77.6
2018-03-18T07:21:26.347Z,76.7
2018-03-18T07:22:27.954Z,79.1
2018-03-18T07:23:29.571Z,79.5
2018-03-18T07:24:31.179Z,79.3
2018-03-18T07:25:32.848Z,79.6
2018-03-18T07:26:34.408Z,80.0
2018-03-18T07:27:36.023Z,80.8
2018-03-18T07:28:37.664Z,83.0
2018-03-18T07:29:39.257Z,84.0
2018-03-18T07:30:40.866Z,82.9
2018-03-18T07:31:42.495Z,81.7
2018-03-18T07:32:44.104Z,81.6
2018-03-18T07:33:45.721Z,80.0
2018-03-18T07:34:47.339Z,81.7
2018-03-18T07:35:48.949Z,80.2
2018-03-18T07:36:50.700Z,81.3
2018-03-18T07:37:52.286Z,79.7
2018-03-18T07:38:53.896Z,81.1
2018-03-18T07:39:55.507Z,79.9
2018-03-18T07:40:57.121Z,80.3
2018-03-18T07:41:58.735Z,80.3
2018-03-18T07:43:00.349Z,80.0
2018-03-18T07:44:01.965Z,80.2
2018-03-18T07:45:03.577Z,80.0
2018-03-18T07:46:05.190Z,80.2
2018-03-18T07:47:06.800Z,79.7
2018-03-18T07:48:08.420Z,79.4
2018-03-18T07:49:10.030Z,78.4
2018-03-18T07:50:11.652Z,76.5
2018-03-18T07:51:13.261Z,76.8
2018-03-18T07:52:14.881Z,76.7
2018-03-18T07:53:16.490Z,76.4
2018-03-18T07:54:18.105Z,75.2
2018-03-18T07:55:19.719Z,75.8
2018-03-18T07:56:21.338Z,76.6
2018-03-18T07:57:22.950Z,77.0
2018-03-18T07:58:24.565Z,76.3
2018-03-18T07:59:26.173Z,75.2
2018-03-18T08:00:27.785Z,74.6
2018-03-18T08:01:29.399Z,75.3
2018-03-18T08:02:31.012Z,74.7
2018-03-18T08:03:32.625Z,74.0
2018-03-18T08:04:34.234Z,75.3
2018-03-18T08:05:35.851Z,74.3
2018-03-18T08:06:37.454Z,73.4
2018-03-18T08:07:39.066Z,73.2
2018-03-18T08:08:40.679Z,73.1
2018-03-18T08:09:42.285Z,73.5
2018-03-18T08:10:43.897Z,73.1
2018-03-18T08:11:46.199Z,73.5
2018-03-18T08:12:47.819Z,76.6
2018-03-18T08:13:49.434Z,77.0
2018-03-18T08:14:51.039Z,77.8
2018-03-18T08:15:52.654Z,77.3
2018-03-18T08:16:54.265Z,77.5
2018-03-18T08:17:55.872Z,76.8
2018-03-18T08:18:57.483Z,76.5
2018-03-18T08:19:59.099Z,76.6
2018-03-18T08:21:00.709Z,75.3
2018-03-18T08:22:02.335Z,74.4
2018-03-18T08:23:03.945Z,73.7
2018-03-18T08:24:05.557Z,74.6
2018-03-18T08:25:07.163Z,75.3
2018-03-18T08:26:08.778Z,74.9
2018-03-18T08:27:10.387Z,73.6
2018-03-18T08:28:11.999Z,72.9
2018-03-18T08:29:13.615Z,73.2
2018-03-18T08:30:15.231Z,74.4
2018-03-18T08:31:16.835Z,73.6
2018-03-18T08:32:18.450Z,73.4
2018-03-18T08:33:20.059Z,74.2
2018-03-18T08:34:21.735Z,72.1
2018-03-18T08:35:23.349Z,72.3
2018-03-18T08:36:24.962Z,73.1
2018-03-18T08:37:26.570Z,73.5
2018-03-18T08:38:28.209Z,73.1
2018-03-18T08:39:29.818Z,72.3
2018-03-18T08:40:31.428Z,73.7
2018-03-18T08:41:33.042Z,72.7
2018-03-18T08:42:34.652Z,73.5
2018-03-18T08:43:36.255Z,74.0
2018-03-18T08:44:37.864Z,72.6
2018-03-18T08:45:39.475Z,73.2
2018-03-18T08:46:41.084Z,74.1
2018-03-18T08:47:42.695Z,74.8
2018-03-18T08:48:44.315Z,71.8
2018-03-18T08:49:45.922Z,70.7
2018-03-18T08:50:47.532Z,70.7
2018-03-18T08:51:49.148Z,71.6
2018-03-18T08:52:50.756Z,69.8
2018-03-18T08:53:52.376Z,68.0
2018-03-18T08:54:53.984Z,68.8
2018-03-18T08:55:55.602Z,69.2
2018-03-18T08:56:57.208Z,68.1
2018-03-18T08:57:58.820Z,66.8
2018-03-18T08:59:00.436Z,66.1
2018-03-18T09:00:02.045Z,65.7
2018-03-18T09:01:03.658Z,65.3
2018-03-18T09:02:05.267Z,64.9
2018-03-18T09:03:06.886Z,63.4
2018-03-18T09:04:08.496Z,62.7
2018-03-18T09:05:10.111Z,62.3
2018-03-18T09:06:11.721Z,63.7
2018-03-18T09:07:13.337Z,64.4
2018-03-18T09:08:14.948Z,64.4
2018-03-18T09:09:16.563Z,64.1
2018-03-18T09:10:18.177Z,64.5
2018-03-18T09:11:19.790Z,65.2
2018-03-18T09:12:21.398Z,64.6
2018-03-18T09:13:23.022Z,63.9
2018-03-18T09:14:24.627Z,64.0
2018-03-18T09:15:26.234Z,63.6
2018-03-18T09:16:27.852Z,62.9
2018-03-18T09:17:29.468Z,65.0
2018-03-18T09:18:31.079Z,68.1
2018-03-18T09:19:32.697Z,69.7
2018-03-18T09:20:34.313Z,68.1
2018-03-18T09:21:35.923Z,64.7
2018-03-18T09:22:38.937Z,63.6
2018-03-18T09:23:40.512Z,64.0
2018-03-18T09:24:42.116Z,66.0
2018-03-18T09:25:43.733Z,64.5
2018-03-18T09:26:45.348Z,63.0
2018-03-18T09:27:46.958Z,63.6
2018-03-18T09:28:48.573Z,62.9
2018-03-18T09:29:50.216Z,62.6
2018-03-18T09:30:51.903Z,63.0
2018-03-18T09:31:53.495Z,63.0
2018-03-18T09:32:55.109Z,63.4
2018-03-18T09:33:56.726Z,64.2
2018-03-18T09:34:58.337Z,63.9
2018-03-18T09:35:59.948Z,63.7
2018-03-18T09:37:01.562Z,62.6
2018-03-18T09:38:03.172Z,63.6
2018-03-18T09:39:06.764Z,64.2
2018-03-18T09:40:08.503Z,64.3
2018-03-18T09:41:10.122Z,63.9
2018-03-18T09:42:11.729Z,63.9
2018-03-18T09:43:13.337Z,64.3
2018-03-18T09:44:14.958Z,64.3
2018-03-18T09:45:16.570Z,65.7
2018-03-18T09:46:18.180Z,64.8
2018-03-18T09:47:19.793Z,64.5
2018-03-18T09:48:21.406Z,65.6
2018-03-18T09:49:23.017Z,65.6
2018-03-18T09:50:24.627Z,66.7
2018-03-18T09:51:26.237Z,67.3
2018-03-18T09:52:28.763Z,67.9
2018-03-18T09:53:30.372Z,68.3
2018-03-18T09:54:31.988Z,67.5
2018-03-18T09:55:33.583Z,67.6
2018-03-18T09:56:35.200Z,67.2
2018-03-18T09:57:36.805Z,68.4
2018-03-18T09:58:38.422Z,67.5
2018-03-18T09:59:40.033Z,68.1
2018-03-18T10:00:41.647Z,68.1
2018-03-18T10:01:43.260Z,68.8
2018-03-18T10:02:44.872Z,70.7
2018-03-18T10:03:46.484Z,72.1
2018-03-18T10:04:48.092Z,70.6
2018-03-18T10:05:49.707Z,69.8
2018-03-18T10:06:51.314Z,71.6
2018-03-18T10:07:52.930Z,72.6
2018-03-18T10:08:54.536Z,73.9
2018-03-18T10:09:56.151Z,72.9
2018-03-18T10:10:57.755Z,74.0
2018-03-18T10:11:59.369Z,73.7
2018-03-18T10:13:00.976Z,72.8
2018-03-18T10:14:02.614Z,74.4
2018-03-18T10:15:04.203Z,73.7
2018-03-18T10:16:05.814Z,72.9
2018-03-18T10:17:07.422Z,72.6
2018-03-18T10:18:09.034Z,72.8
2018-03-18T10:19:10.642Z,71.6
2018-03-18T10:20:12.277Z,72.7
2018-03-18T10:21:13.867Z,72.4
2018-03-18T10:22:15.483Z,71.6
2018-03-18T10:23:17.092Z,70.6
2018-03-18T10:24:18.699Z,70.5
2018-03-18T10:25:20.311Z,69.1
2018-03-18T10:26:21.922Z,68.6
2018-03-18T10:27:23.535Z,67.5
2018-03-18T10:28:25.145Z,67.9
2018-03-18T10:29:26.758Z,68.1
2018-03-18T10:30:28.364Z,67.2
2018-03-18T10:31:30.021Z,65.8
2018-03-18T10:32:31.633Z,65.1
2018-03-18T10:33:33.241Z,66.3
2018-03-18T10:34:35.609Z,66.0
2018-03-18T10:35:37.222Z,68.1
2018-03-18T10:36:38.833Z,68.8
2018-03-18T10:37:40.450Z,68.3
2018-03-18T10:38:42.063Z,67.6
2018-03-18T10:39:43.671Z,66.7
2018-03-18T10:40:45.279Z,65.0
2018-03-18T10:41:46.896Z,64.9
2018-03-18T10:42:48.517Z,64.0
2018-03-18T10:43:50.123Z,63.4
2018-03-18T10:44:51.734Z,62.1
2018-03-18T10:45:53.349Z,62.4
2018-03-18T10:46:54.967Z,62.6
2018-03-18T10:47:56.575Z,61.2
2018-03-18T10:48:58.187Z,61.2
2018-03-18T10:49:59.807Z,61.0
2018-03-18T10:51:01.422Z,61.2
2018-03-18T10:52:03.032Z,62.5
2018-03-18T10:53:04.648Z,62.3
2018-03-18T10:54:06.262Z,61.3
2018-03-18T10:55:07.904Z,60.9
2018-03-18T10:56:09.492Z,60.6
2018-03-18T10:57:11.105Z,60.5
2018-03-18T10:58:12.724Z,59.4
2018-03-18T10:59:14.334Z,59.5
2018-03-18T11:00:15.950Z,59.2
2018-03-18T11:01:17.560Z,59.2
2018-03-18T11:02:19.179Z,58.2
2018-03-18T11:03:20.788Z,58.3
2018-03-18T11:04:22.408Z,57.8
2018-03-18T11:05:24.021Z,59.7
2018-03-18T11:06:25.636Z,59.7
2018-03-18T11:07:27.247Z,59.8
2018-03-18T11:08:28.864Z,60.8
2018-03-18T11:09:30.474Z,59.9
2018-03-18T11:10:32.090Z,59.1
2018-03-18T11:11:33.705Z,59.2
2018-03-18T11:12:35.325Z,62.2
2018-03-18T11:13:36.938Z,62.8
2018-03-18T11:14:38.558Z,61.0
2018-03-18T11:15:40.167Z,60.5
2018-03-18T11:16:41.783Z,59.1
2018-03-18T11:17:43.414Z,57.8
2018-03-18T11:18:45.017Z,57.2
2018-03-18T11:19:46.641Z,57.3
2018-03-18T11:20:48.246Z,58.4
2018-03-18T11:21:49.861Z,58.4
2018-03-18T11:22:51.473Z,59.1
2018-03-18T11:23:53.138Z,58.8
2018-03-18T11:24:54.706Z,58.4
2018-03-18T11:25:56.328Z,57.4
2018-03-18T11:26:57.941Z,56.1
2018-03-18T11:27:59.556Z,56.3
2018-03-18T11:29:01.177Z,56.4
2018-03-18T11:30:02.821Z,56.4
2018-03-18T11:31:04.403Z,55.3
2018-03-18T11:32:06.026Z,55.2
2018-03-18T11:33:07.642Z,53.7
2018-03-18T11:34:09.260Z,54.5
2018-03-18T11:35:10.872Z,55.0
2018-03-18T11:36:12.486Z,55.0
2018-03-18T11:37:14.113Z,54.4
2018-03-18T11:38:15.724Z,52.1
2018-03-18T11:39:17.338Z,52.4
2018-03-18T11:40:18.954Z,51.5
2018-03-18T11:41:20.575Z,51.2
2018-03-18T11:42:22.193Z,51.7
2018-03-18T11:43:23.805Z,51.4
2018-03-18T11:44:25.422Z,51.9
2018-03-18T11:45:27.044Z,52.5
2018-03-18T11:46:28.659Z,52.5
2018-03-18T11:47:30.276Z,51.5
2018-03-18T11:48:31.892Z,50.6
2018-03-18T11:49:33.527Z,49.6
2018-03-18T11:50:35.162Z,48.2
2018-03-18T11:51:36.746Z,50.5
2018-03-18T11:52:38.367Z,50.1
2018-03-18T11:53:40.808Z,49.5
2018-03-18T11:54:42.424Z,48.7
2018-03-18T11:55:44.051Z,47.9
2018-03-18T11:56:45.667Z,47.8
2018-03-18T11:57:47.282Z,45.8
2018-03-18T11:58:48.897Z,44.9
2018-03-18T11:59:50.520Z,44.8
2018-03-18T12:00:52.141Z,45.1
2018-03-18T12:01:53.759Z,44.5
2018-03-18T12:02:55.379Z,45.7
2018-03-18T12:03:57.001Z,47.5
2018-03-18T12:04:58.654Z,46.4
2018-03-18T12:06:00.267Z,44.3
2018-03-18T12:07:01.892Z,45.9
2018-03-18T12:08:03.509Z,44.0
2018-03-18T12:09:05.127Z,44.7
2018-03-18T12:10:06.750Z,44.8
2018-03-18T12:11:08.376Z,45.8
2018-03-18T12:12:09.983Z,44.1
2018-03-18T12:13:11.602Z,42.6
2018-03-18T12:14:13.224Z,42.7
2018-03-18T12:15:14.844Z,41.6
2018-03-18T12:16:16.465Z,40.9
2018-03-18T12:17:18.085Z,41.3
2018-03-18T12:18:19.704Z,43.1
2018-03-18T12:19:21.327Z,44.3
2018-03-18T12:20:22.943Z,44.6
2018-03-18T12:21:24.907Z,45.8
2018-03-18T12:22:26.526Z,44.0
2018-03-18T12:23:28.141Z,43.9
2018-03-18T12:24:29.763Z,44.4
2018-03-18T12:25:31.377Z,43.5
2018-03-18T12:26:33.002Z,44.9
2018-03-18T12:27:34.624Z,45.4
2018-03-18T12:28:36.234Z,46.1
2018-03-18T12:29:37.886Z,47.0
2018-03-18T12:30:39.502Z,48.2
2018-03-18T12:31:41.119Z,48.0
2018-03-18T12:32:42.733Z,48.7
2018-03-18T12:33:44.354Z,48.5
2018-03-18T12:34:45.964Z,48.6
2018-03-18T12:35:47.575Z,49.3
2018-03-18T12:36:49.188Z,49.3
2018-03-18T12:37:50.806Z,48.6
2018-03-18T12:38:52.418Z,49.8
2018-03-18T12:39:54.037Z,51.2
2018-03-18T12:40:55.652Z,51.0
2018-03-18T12:41:57.268Z,52.8
2018-03-18T12:42:58.880Z,52.9
2018-03-18T12:44:00.499Z,52.4
2018-03-18T12:45:02.110Z,51.3
2018-03-18T12:46:03.733Z,51.0
2018-03-18T12:47:05.340Z,50.2
2018-03-18T12:48:06.956Z,50.4
2018-03-18T12:49:08.571Z,49.8
2018-03-18T12:50:10.186Z,50.6
2018-03-18T12:51:11.800Z,50.3
2018-03-18T12:52:13.415Z,50.8
2018-03-18T12:53:15.034Z,52.5
2018-03-18T12:54:16.651Z,52.5
2018-03-18T12:55:18.257Z,51.5
2018-03-18T12:56:19.868Z,50.7
2018-03-18T12:57:21.485Z,50.1
2018-03-18T12:58:23.097Z,50.4
2018-03-18T12:59:24.716Z,49.9
2018-03-18T13:00:26.331Z,50.4
2018-03-18T13:01:27.947Z,50.4
2018-03-18T13:02:29.558Z,50.3
2018-03-18T13:03:31.175Z,49.5
2018-03-18T13:04:32.788Z,49.0
2018-03-18T13:05:34.398Z,48.1
2018-03-18T13:06:36.027Z,47.3
2018-03-18T13:07:37.631Z,49.5
2018-03-18T13:08:39.241Z,48.9
2018-03-18T13:09:40.851Z,49.3
2018-03-18T13:10:42.464Z,48.4
2018-03-18T13:11:44.077Z,49.1
2018-03-18T13:12:45.690Z,48.8
2018-03-18T13:13:47.327Z,48.0
2018-03-18T13:14:48.920Z,48.1
2018-03-18T13:15:50.536Z,48.8
2018-03-18T13:16:52.145Z,48.2
2018-03-18T13:17:53.760Z,48.0
2018-03-18T13:18:55.373Z,49.0
2018-03-18T13:19:56.991Z,47.6
2018-03-18T13:20:58.607Z,46.3
2018-03-18T13:22:00.219Z,47.6
2018-03-18T13:23:01.834Z,49.7
2018-03-18T13:24:03.442Z,49.8
2018-03-18T13:25:05.065Z,49.1
2018-03-18T13:26:06.675Z,47.9
2018-03-18T13:27:08.285Z,48.3
2018-03-18T13:28:09.904Z,48.3
2018-03-18T13:29:11.520Z,48.6
2018-03-18T13:30:13.128Z,47.4
2018-03-18T13:31:14.745Z,48.4
2018-03-18T13:32:16.354Z,48.8
2018-03-18T13:33:17.972Z,48.7
2018-03-18T13:34:19.581Z,49.8
2018-03-18T13:35:21.196Z,50.4
2018-03-18T13:36:22.816Z,50.2
2018-03-18T13:37:24.428Z,49.9
2018-03-18T13:38:26.044Z,48.2
2018-03-18T13:39:27.659Z,48.4
2018-03-18T13:40:29.276Z,48.3